createdAt,value
2022-09-06T00:01:52.392Z,3.78
2022-09-06T00:04:22.720Z,4.10
2022-09-06T00:06:52.997Z,3.25
2022-09-06T00:09:25.928Z,3.78
2022-09-06T00:11:56.183Z,2.53
2022-09-06T00:14:26.440Z,3.22
2022-09-06T00:16:56.912Z,2.75
2022-09-06T00:19:27.914Z,2.92
2022-09-06T00:21:58.149Z,3.17
2022-09-06T00:24:31.195Z,2.92
2022-09-06T00:27:01.456Z,2.70
2022-09-06T00:29:31.821Z,2.65
2022-09-06T00:32:02.197Z,3.10
2022-09-06T00:34:32.475Z,3.88
2022-09-06T00:37:02.712Z,4.25
2022-09-06T00:39:35.756Z,3.63
2022-09-06T00:42:06.064Z,2.67
2022-09-06T00:44:36.343Z,2.70
2022-09-06T00:47:07.369Z,2.95
2022-09-06T00:49:40.574Z,3.00
2022-09-06T00:52:11.629Z,6.30
2022-09-06T00:54:44.687Z,5.35
2022-09-06T00:57:15.631Z,5.03
2022-09-06T00:59:46.300Z,5.75
2022-09-06T01:02:17.410Z,4.28
2022-09-06T01:04:48.295Z,4.43
2022-09-06T01:07:21.998Z,3.10
2022-09-06T01:10:03.001Z,4.45
2022-09-06T01:12:40.701Z,4.13
2022-09-06T01:15:19.547Z,3.28
2022-09-06T01:17:57.829Z,3.85
2022-09-06T01:20:36.050Z,3.60
2022-09-06T01:23:21.427Z,5.60
2022-09-06T01:26:00.197Z,4.00
2022-09-06T01:28:37.509Z,3.58
2022-09-06T01:31:14.599Z,4.03
2022-09-06T01:33:51.427Z,3.88
2022-09-06T01:36:24.447Z,4.05
2022-09-06T01:38:54.662Z,8.68
2022-09-06T01:41:24.650Z,4.05
2022-09-06T01:43:57.757Z,8.13
2022-09-06T01:46:36.201Z,4.57
2022-09-06T01:49:14.031Z,4.75
2022-09-06T01:51:57.181Z,4.88
2022-09-06T01:54:31.557Z,4.10
2022-09-06T01:57:15.781Z,4.90
2022-09-06T01:59:58.724Z,8.10
2022-09-06T02:02:30.543Z,4.75
2022-09-06T02:05:04.976Z,4.63
2022-09-06T02:07:37.797Z,4.00
2022-09-06T02:10:13.641Z,4.75
2022-09-06T02:12:45.128Z,4.40
2022-09-06T02:15:19.325Z,5.55
2022-09-06T02:17:54.030Z,4.93
2022-09-06T02:20:27.566Z,4.40
2022-09-06T02:23:00.316Z,4.63
2022-09-06T02:25:33.464Z,4.72
2022-09-06T02:28:03.842Z,5.73
2022-09-06T02:30:37.674Z,4.85
2022-09-06T02:33:13.652Z,7.10
2022-09-06T02:35:49.243Z,4.22
2022-09-06T02:38:19.986Z,5.28
2022-09-06T02:40:51.008Z,5.80
2022-09-06T02:43:21.671Z,6.75
2022-09-06T02:45:54.303Z,6.15
2022-09-06T02:48:24.562Z,5.70
2022-09-06T02:50:54.585Z,6.30
2022-09-06T02:53:24.685Z,5.97
2022-09-06T02:55:54.916Z,5.72
2022-09-06T02:58:24.886Z,6.07
2022-09-06T03:00:57.891Z,6.40
2022-09-06T03:03:28.189Z,6.28
2022-09-06T03:05:58.756Z,7.30
2022-09-06T03:08:33.507Z,7.30
2022-09-06T03:11:04.320Z,7.72
2022-09-06T03:13:34.294Z,5.93
2022-09-06T03:16:07.133Z,6.07
2022-09-06T03:18:37.357Z,6.18
2022-09-06T03:21:07.728Z,6.43
2022-09-06T03:23:39.591Z,6.57
2022-09-06T03:26:10.005Z,7.45
2022-09-06T03:28:40.065Z,7.13
2022-09-06T03:31:13.308Z,7.38
2022-09-06T03:33:43.546Z,6.73
2022-09-06T03:36:13.913Z,6.15
2022-09-06T03:38:44.148Z,6.63
2022-09-06T03:41:14.314Z,7.63
2022-09-06T03:43:44.281Z,7.22
2022-09-06T03:46:16.927Z,7.38
2022-09-06T03:48:47.310Z,8.82
2022-09-06T03:51:17.257Z,8.07
2022-09-06T03:53:47.497Z,9.40
2022-09-06T03:56:17.717Z,7.40
2022-09-06T03:58:47.940Z,8.52
2022-09-06T04:01:20.966Z,7.13
2022-09-06T04:03:51.012Z,7.77
2022-09-06T04:06:21.249Z,7.68
2022-09-06T04:08:51.235Z,8.38
2022-09-06T04:11:21.224Z,10.10
2022-09-06T04:13:51.181Z,8.48
2022-09-06T04:16:23.792Z,8.30
2022-09-06T04:18:54.069Z,8.70
2022-09-06T04:21:24.304Z,9.73
2022-09-06T04:23:54.552Z,8.02
2022-09-06T04:26:24.837Z,11.10
2022-09-06T04:28:58.260Z,10.20
2022-09-06T04:31:31.138Z,8.75
2022-09-06T04:34:01.386Z,10.95
2022-09-06T04:36:31.692Z,9.40
2022-09-06T04:39:01.934Z,8.93
2022-09-06T04:41:32.200Z,9.77
2022-09-06T04:44:02.179Z,9.63
2022-09-06T04:46:34.957Z,11.48
2022-09-06T04:49:05.261Z,9.05
2022-09-06T04:51:35.560Z,9.02
2022-09-06T04:54:05.809Z,10.50
2022-09-06T04:56:36.185Z,9.75
2022-09-06T04:59:06.445Z,7.82
2022-09-06T05:01:39.027Z,8.77
2022-09-06T05:04:08.976Z,8.95
2022-09-06T05:06:39.358Z,8.50
2022-09-06T05:09:09.581Z,9.05
2022-09-06T05:11:39.833Z,8.38
2022-09-06T05:14:09.824Z,8.52
2022-09-06T05:16:42.706Z,8.35
2022-09-06T05:19:12.948Z,8.00
2022-09-06T05:21:43.273Z,9.45
2022-09-06T05:24:13.225Z,9.20
2022-09-06T05:26:43.188Z,7.80
2022-09-06T05:29:13.400Z,10.77
2022-09-06T05:31:48.003Z,7.80
2022-09-06T05:34:18.023Z,9.27
2022-09-06T05:36:48.012Z,7.82
2022-09-06T05:39:19.558Z,8.52
2022-09-06T05:41:49.820Z,9.23
2022-09-06T05:44:20.035Z,9.23
2022-09-06T05:46:53.644Z,6.82
2022-09-06T05:49:23.937Z,7.13
2022-09-06T05:51:54.533Z,7.35
2022-09-06T05:54:24.506Z,7.75
2022-09-06T05:56:54.730Z,7.20
2022-09-06T05:59:25.077Z,7.75
2022-09-06T06:01:58.178Z,8.00
2022-09-06T06:04:28.460Z,7.50
2022-09-06T06:06:58.697Z,10.30
2022-09-06T06:09:28.919Z,8.00
2022-09-06T06:11:59.181Z,8.05
2022-09-06T06:14:29.421Z,8.38
2022-09-06T06:17:02.549Z,12.40
2022-09-06T06:19:32.959Z,8.63
2022-09-06T06:22:03.346Z,8.57
2022-09-06T06:24:33.602Z,8.52
2022-09-06T06:27:03.881Z,8.75
2022-09-06T06:29:34.700Z,7.88
2022-09-06T06:32:07.838Z,8.30
2022-09-06T06:34:38.273Z,9.10
2022-09-06T06:37:08.586Z,8.30
2022-09-06T06:39:38.943Z,7.95
2022-09-06T06:42:09.333Z,7.75
2022-09-06T06:44:53.370Z,7.23
2022-09-06T06:47:26.167Z,7.85
2022-09-06T06:49:56.376Z,6.80
2022-09-06T06:52:26.649Z,6.68
2022-09-06T06:54:56.878Z,7.72
2022-09-06T06:57:27.228Z,7.18
2022-09-06T06:59:57.452Z,6.68
2022-09-06T07:02:30.339Z,7.78
2022-09-06T07:05:00.740Z,7.63
2022-09-06T07:07:31.281Z,6.35
2022-09-06T07:12:52.837Z,6.80
2022-09-06T07:15:23.136Z,9.95
2022-09-06T07:17:57.932Z,10.07
2022-09-06T07:20:28.759Z,11.45
2022-09-06T07:25:53.197Z,12.05
2022-09-06T07:28:23.643Z,7.70
2022-09-06T07:30:56.765Z,6.97
2022-09-06T07:33:30.377Z,6.25
2022-09-06T07:36:01.498Z,6.93
2022-09-06T07:38:32.633Z,6.88
2022-09-06T07:41:03.608Z,7.88
2022-09-06T07:43:34.293Z,7.78
2022-09-06T07:46:05.189Z,6.35
2022-09-06T07:48:39.262Z,6.43
2022-09-06T07:51:11.366Z,9.60
2022-09-06T07:53:42.122Z,10.07
2022-09-06T07:56:12.993Z,9.60
2022-09-06T07:58:43.769Z,9.15
2022-09-06T08:01:30.119Z,7.63
2022-09-06T08:04:03.996Z,7.40
2022-09-06T08:09:25.875Z,7.57
2022-09-06T08:11:56.100Z,10.65
2022-09-06T08:14:26.374Z,8.25
2022-09-06T08:16:56.649Z,7.35
2022-09-06T08:19:29.654Z,5.97
2022-09-06T08:21:59.665Z,6.55
2022-09-06T08:24:29.640Z,5.45
2022-09-06T08:26:59.631Z,6.53
2022-09-06T08:29:30.133Z,5.93
2022-09-06T08:32:00.488Z,4.32
2022-09-06T08:34:33.542Z,5.50
2022-09-06T08:37:03.590Z,6.15
2022-09-06T08:39:33.972Z,4.25
2022-09-06T08:42:05.306Z,5.22
2022-09-06T08:47:28.272Z,4.40
2022-09-06T08:50:04.409Z,4.50
2022-09-06T08:55:48.144Z,5.32
2022-09-06T08:58:25.201Z,6.10
2022-09-06T09:00:58.915Z,5.80
2022-09-06T09:06:09.276Z,4.78
2022-09-06T09:08:43.063Z,4.10
2022-09-06T09:13:46.084Z,5.65
2022-09-06T09:16:16.367Z,4.88
2022-09-06T09:18:48.442Z,5.20
2022-09-06T09:21:28.091Z,4.10
2022-09-06T09:24:04.676Z,4.30
2022-09-06T09:26:40.761Z,6.07
2022-09-06T09:29:13.658Z,4.03
2022-09-06T09:31:47.770Z,4.63
2022-09-06T09:34:31.146Z,4.78
2022-09-06T09:40:16.777Z,4.60
2022-09-06T09:42:47.499Z,6.55
2022-09-06T09:45:27.872Z,6.20
2022-09-06T09:47:58.357Z,4.32
2022-09-06T09:50:30.362Z,7.35
2022-09-06T09:53:11.628Z,4.18
2022-09-06T09:55:42.219Z,8.50
2022-09-06T09:58:20.864Z,4.40
2022-09-06T10:00:51.108Z,3.60
2022-09-06T10:03:22.493Z,5.35
2022-09-06T10:06:02.667Z,4.93
2022-09-06T10:08:37.129Z,4.82
2022-09-06T10:11:07.521Z,4.82
2022-09-06T10:13:37.701Z,3.47
2022-09-06T10:16:08.105Z,3.35
2022-09-06T10:18:40.022Z,3.30
2022-09-06T10:21:12.865Z,3.63
2022-09-06T10:26:54.834Z,3.88
2022-09-06T10:29:32.497Z,8.70
2022-09-06T10:32:09.204Z,3.65
2022-09-06T10:34:52.024Z,5.45
2022-09-06T10:37:37.259Z,4.40
2022-09-06T10:40:11.494Z,7.38
2022-09-06T10:42:45.996Z,4.75
2022-09-06T10:45:25.421Z,2.25
2022-09-06T10:48:01.362Z,4.85
2022-09-06T10:50:37.343Z,3.72
2022-09-06T10:53:13.345Z,5.65
2022-09-06T10:55:48.023Z,2.72
2022-09-06T10:58:25.284Z,3.70
2022-09-06T11:00:57.837Z,4.70
2022-09-06T11:06:26.704Z,4.18
2022-09-06T11:09:00.805Z,6.07
2022-09-06T11:11:36.621Z,2.63
2022-09-06T11:14:08.427Z,3.03
2022-09-06T11:16:42.173Z,3.45
2022-09-06T11:19:17.634Z,4.15
2022-09-06T11:22:07.073Z,3.72
2022-09-06T11:24:45.884Z,3.60
2022-09-06T11:27:22.832Z,4.82
2022-09-06T11:29:56.566Z,6.38
2022-09-06T11:32:33.125Z,4.53
2022-09-06T11:35:04.579Z,4.18
2022-09-06T11:37:36.761Z,3.33
2022-09-06T11:40:28.331Z,2.92
2022-09-06T11:43:17.912Z,3.97
2022-09-06T11:45:50.112Z,2.53
2022-09-06T11:48:37.732Z,2.88
2022-09-06T11:51:10.892Z,3.15
2022-09-06T11:56:31.933Z,4.00
2022-09-06T11:59:07.553Z,1.80
2022-09-06T12:01:39.541Z,2.28
2022-09-06T12:04:13.581Z,3.88
2022-09-06T12:06:45.131Z,2.35
2022-09-06T12:09:34.500Z,1.63
2022-09-06T12:12:04.933Z,1.63
2022-09-06T12:14:39.737Z,1.70
2022-09-06T12:17:31.000Z,2.65
2022-09-06T12:20:06.653Z,1.35
2022-09-06T12:23:00.625Z,4.93
2022-09-06T12:25:59.127Z,2.97
2022-09-06T12:28:31.466Z,1.88
2022-09-06T12:31:04.414Z,2.87
2022-09-06T12:33:36.283Z,1.92
2022-09-06T12:36:16.762Z,1.70
2022-09-06T12:38:57.359Z,1.55
2022-09-06T12:41:28.112Z,2.67
2022-09-06T12:43:58.641Z,1.88
2022-09-06T12:46:33.349Z,3.60
2022-09-06T12:49:08.412Z,2.50
2022-09-06T12:51:39.182Z,2.33
2022-09-06T12:54:19.766Z,2.42
2022-09-06T12:56:49.956Z,1.38
2022-09-06T12:59:22.069Z,3.22
2022-09-06T13:02:03.333Z,1.98
2022-09-06T13:04:41.872Z,4.50
2022-09-06T13:07:15.749Z,2.28
2022-09-06T13:09:46.979Z,2.15
2022-09-06T13:12:21.929Z,3.55
2022-09-06T13:14:55.663Z,3.20
2022-09-06T13:17:31.081Z,4.18
2022-09-06T13:20:02.894Z,2.35
2022-09-06T13:22:44.325Z,1.60
2022-09-06T13:25:20.983Z,4.57
2022-09-06T13:27:57.531Z,2.28
2022-09-06T13:30:41.920Z,2.05
2022-09-06T13:33:26.305Z,4.38
2022-09-06T13:36:08.918Z,2.80
2022-09-06T13:38:42.765Z,3.03
2022-09-06T13:41:51.520Z,2.40
2022-09-06T13:44:23.608Z,1.60
2022-09-06T13:46:56.558Z,2.95
2022-09-06T13:49:29.560Z,2.55
2022-09-06T13:52:03.392Z,2.67
2022-09-06T13:54:34.744Z,2.15
2022-09-06T13:57:05.112Z,2.13
2022-09-06T13:59:35.622Z,4.00
2022-09-06T14:02:09.402Z,1.75
2022-09-06T14:04:42.275Z,2.00
2022-09-06T14:07:12.870Z,4.07
2022-09-06T14:09:43.147Z,2.05
2022-09-06T14:12:13.644Z,3.95
2022-09-06T14:14:44.861Z,2.63
2022-09-06T14:17:15.282Z,3.30
2022-09-06T14:19:49.537Z,1.05
2022-09-06T14:22:19.848Z,1.85
2022-09-06T14:24:50.863Z,4.90
2022-09-06T14:27:21.218Z,3.72
2022-09-06T14:29:51.450Z,3.70
2022-09-06T14:32:22.743Z,1.83
2022-09-06T14:34:56.181Z,1.83
2022-09-06T14:37:26.385Z,3.65
2022-09-06T14:39:56.886Z,2.95
2022-09-06T14:42:28.462Z,1.85
2022-09-06T14:44:58.916Z,2.42
2022-09-06T14:47:29.207Z,2.80
2022-09-06T14:50:02.273Z,3.10
2022-09-06T14:52:32.556Z,1.48
2022-09-06T14:55:02.836Z,3.33
2022-09-06T14:57:33.183Z,2.67
2022-09-06T15:00:06.062Z,4.60
2022-09-06T15:02:36.493Z,2.55
2022-09-06T15:05:10.161Z,1.80
2022-09-06T15:07:40.509Z,6.00
2022-09-06T15:10:11.096Z,1.42
2022-09-06T15:12:41.487Z,2.03
2022-09-06T15:15:12.204Z,2.40
2022-09-06T15:17:42.526Z,3.42
2022-09-06T15:20:15.371Z,2.90
2022-09-06T15:22:45.668Z,2.42
2022-09-06T15:25:15.956Z,3.08
2022-09-06T15:27:46.256Z,2.72
2022-09-06T15:30:16.712Z,1.88
2022-09-06T15:32:47.041Z,3.15
2022-09-06T15:35:20.165Z,5.53
2022-09-06T15:37:51.352Z,6.68
2022-09-06T15:40:24.370Z,2.95
2022-09-06T15:42:54.797Z,0.95
2022-09-06T15:45:25.149Z,1.25
2022-09-06T15:47:56.699Z,5.35
2022-09-06T15:50:50.263Z,3.78
2022-09-06T15:53:20.005Z,1.73
2022-09-06T15:55:59.651Z,4.35
2022-09-06T15:58:30.804Z,5.53
2022-09-06T16:01:04.820Z,4.20
2022-09-06T16:03:35.399Z,1.83
2022-09-06T16:06:25.805Z,3.47
2022-09-06T16:09:01.097Z,4.20
2022-09-06T16:11:32.732Z,5.32
2022-09-06T16:14:03.276Z,2.60
2022-09-06T16:16:34.629Z,2.00
2022-09-06T16:19:05.009Z,1.00
2022-09-06T16:21:40.044Z,1.80
2022-09-06T16:24:13.053Z,1.52
2022-09-06T16:26:44.379Z,2.38
2022-09-06T16:29:16.571Z,3.30
2022-09-06T16:31:46.930Z,1.75
2022-09-06T16:34:17.933Z,3.75
2022-09-06T16:36:50.822Z,3.05
2022-09-06T16:39:22.192Z,1.27
2022-09-06T16:41:52.479Z,3.63
2022-09-06T16:44:22.837Z,1.90
2022-09-06T16:49:27.422Z,2.63
2022-09-06T16:52:00.574Z,2.75
2022-09-06T16:54:30.890Z,1.52
2022-09-06T16:57:01.229Z,4.00
2022-09-06T16:59:31.528Z,3.88
2022-09-06T17:02:01.847Z,7.53
2022-09-06T17:04:32.254Z,8.57
2022-09-06T17:07:04.885Z,6.18
2022-09-06T17:09:35.388Z,8.23
2022-09-06T17:12:05.924Z,5.65
2022-09-06T17:14:36.622Z,4.57
2022-09-06T17:17:07.631Z,5.65
2022-09-06T17:19:41.281Z,3.33
2022-09-06T17:24:45.324Z,6.00
2022-09-06T17:27:15.642Z,5.03
2022-09-06T17:29:45.917Z,7.63
2022-09-06T17:32:16.209Z,3.00
2022-09-06T17:34:46.509Z,2.25
2022-09-06T17:37:20.444Z,2.65
2022-09-06T17:39:50.889Z,3.65
2022-09-06T17:42:21.186Z,3.33
2022-09-06T17:44:51.485Z,5.32
2022-09-06T17:47:21.792Z,3.60
2022-09-06T17:49:52.181Z,4.80
2022-09-06T17:52:25.093Z,5.68
2022-09-06T17:54:55.377Z,3.90
2022-09-06T17:57:25.732Z,3.53
2022-09-06T17:59:55.738Z,3.17
2022-09-06T18:02:26.009Z,6.15
2022-09-06T18:04:56.320Z,1.88
2022-09-06T18:07:29.261Z,3.38
2022-09-06T18:09:59.528Z,3.55
2022-09-06T18:12:30.965Z,2.97
2022-09-06T18:15:01.974Z,4.10
2022-09-06T18:17:32.920Z,7.15
2022-09-06T18:20:02.994Z,2.65
2022-09-06T18:22:38.137Z,2.40
2022-09-06T18:25:08.943Z,2.15
2022-09-06T18:27:39.224Z,5.80
2022-09-06T18:30:14.654Z,2.88
2022-09-06T18:32:45.326Z,2.03
2022-09-06T18:35:15.969Z,3.88
2022-09-06T18:37:48.844Z,2.30
2022-09-06T18:40:19.197Z,2.07
2022-09-06T18:42:49.659Z,3.20
2022-09-06T18:45:20.059Z,6.25
2022-09-06T18:47:50.461Z,2.85
2022-09-06T18:53:03.436Z,5.72
2022-09-06T18:55:34.493Z,2.88
2022-09-06T18:58:04.925Z,3.47
2022-09-06T19:00:35.440Z,3.63
2022-09-06T19:03:05.518Z,3.70
2022-09-06T19:05:38.056Z,1.58
2022-09-06T19:08:10.878Z,2.97
2022-09-06T19:10:41.175Z,3.20
2022-09-06T19:13:11.657Z,8.07
2022-09-06T19:15:42.095Z,3.85
2022-09-06T19:18:12.424Z,3.33
2022-09-06T19:20:42.440Z,2.10
2022-09-06T19:23:15.762Z,2.13
2022-09-06T19:25:46.059Z,3.40
2022-09-06T19:28:16.625Z,4.13
2022-09-06T19:30:46.801Z,3.38
2022-09-06T19:33:17.473Z,3.97
2022-09-06T19:36:09.949Z,2.05
2022-09-06T19:41:34.641Z,6.40
2022-09-06T19:44:05.809Z,3.15
2022-09-06T19:46:37.272Z,2.42
2022-09-06T19:49:09.557Z,4.32
2022-09-06T19:51:39.842Z,3.63
2022-09-06T19:54:12.816Z,3.35
2022-09-06T19:56:44.184Z,4.15
2022-09-06T19:59:15.336Z,2.95
2022-09-06T20:01:47.793Z,3.75
2022-09-06T20:04:20.005Z,5.63
2022-09-06T20:06:52.057Z,7.85
2022-09-06T20:09:24.975Z,4.07
2022-09-06T20:11:55.279Z,5.97
2022-09-06T20:14:26.410Z,3.72
2022-09-06T20:17:11.124Z,4.82
2022-09-06T20:19:49.099Z,5.13
2022-09-06T20:22:19.399Z,4.38
2022-09-06T20:24:52.044Z,4.78
2022-09-06T20:27:22.316Z,4.85
2022-09-06T20:29:52.618Z,2.58
2022-09-06T20:32:22.721Z,5.10
2022-09-06T20:34:52.770Z,1.77
2022-09-06T20:37:23.465Z,4.13
2022-09-06T20:39:56.361Z,3.25
2022-09-06T20:42:26.677Z,3.00
2022-09-06T20:44:56.977Z,4.68
2022-09-06T20:47:27.287Z,3.22
2022-09-06T20:49:57.317Z,4.32
2022-09-06T20:52:27.712Z,4.68
2022-09-06T20:55:00.796Z,3.00
2022-09-06T20:57:31.093Z,3.13
2022-09-06T21:00:01.730Z,3.13
2022-09-06T21:02:32.070Z,4.18
2022-09-06T21:05:03.735Z,2.70
2022-09-06T21:07:33.741Z,4.82
2022-09-06T21:10:06.768Z,7.22
2022-09-06T21:12:37.046Z,3.20
2022-09-06T21:15:07.648Z,3.13
2022-09-06T21:17:39.253Z,7.20
2022-09-06T21:20:10.396Z,3.88
2022-09-06T21:22:40.416Z,4.13
2022-09-06T21:25:13.473Z,3.63
2022-09-06T21:27:43.756Z,9.23
2022-09-06T21:30:15.614Z,5.18
2022-09-06T21:32:45.982Z,4.63
2022-09-06T21:35:16.261Z,4.65
2022-09-06T21:37:46.558Z,5.13
2022-09-06T21:40:19.494Z,3.13
2022-09-06T21:42:49.785Z,5.17
2022-09-06T21:45:20.068Z,3.05
2022-09-06T21:47:50.108Z,3.65
2022-09-06T21:50:20.545Z,4.95
2022-09-06T21:52:50.898Z,2.58
2022-09-06T21:55:23.552Z,13.23
2022-09-06T21:57:53.850Z,3.08
2022-09-06T22:00:24.022Z,3.58
2022-09-06T22:02:54.029Z,6.68
2022-09-06T22:05:24.092Z,4.78
2022-09-06T22:07:54.411Z,9.55
2022-09-06T22:10:27.973Z,5.82
2022-09-06T22:12:58.110Z,3.33
2022-09-06T22:15:28.537Z,3.58
2022-09-06T22:17:58.525Z,4.28
2022-09-06T22:20:28.620Z,3.70
2022-09-06T22:22:58.638Z,3.92
2022-09-06T22:25:31.316Z,5.38
2022-09-06T22:28:01.901Z,3.53
2022-09-06T22:30:32.208Z,4.10
2022-09-06T22:33:02.468Z,6.35
2022-09-06T22:35:32.504Z,4.00
2022-09-06T22:38:02.634Z,5.25
2022-09-06T22:40:35.711Z,6.57
2022-09-06T22:43:06.013Z,5.00
2022-09-06T22:45:36.432Z,5.18
2022-09-06T22:48:06.640Z,4.57
2022-09-06T22:50:36.913Z,5.03
2022-09-06T22:53:07.193Z,5.28
2022-09-06T22:55:40.272Z,6.75
2022-09-06T22:58:10.540Z,4.80
2022-09-06T23:00:41.035Z,4.72
2022-09-06T23:03:11.125Z,6.03
2022-09-06T23:05:41.196Z,3.78
2022-09-06T23:08:11.373Z,3.67
2022-09-06T23:10:46.101Z,5.20
2022-09-06T23:13:16.369Z,3.60
2022-09-06T23:15:47.752Z,6.68
2022-09-06T23:18:18.418Z,4.00
2022-09-06T23:20:48.696Z,6.53
2022-09-06T23:23:18.977Z,5.75
2022-09-06T23:25:51.682Z,7.68
2022-09-06T23:28:22.011Z,4.80
2022-09-06T23:30:52.302Z,6.80
2022-09-06T23:33:22.654Z,7.43
2022-09-06T23:35:56.857Z,5.05
2022-09-06T23:38:26.973Z,4.65
2022-09-06T23:40:59.985Z,5.88
2022-09-06T23:43:30.343Z,4.73
2022-09-06T23:46:00.833Z,4.45
2022-09-06T23:48:31.459Z,3.88
2022-09-06T23:51:01.907Z,4.22
2022-09-06T23:53:32.511Z,5.72
2022-09-06T23:56:05.850Z,5.82
2022-09-06T23:58:36.703Z,5.07
